Time;durP1;ratioP1;P1;durP2;ratioP2;P2;SDS_P1;SDS_P2;PMS_P1;PMS_P2;Temp;Humidity;BMP_temperature;BMP_pressure;BME280_temperature;BME280_humidity;BME280_pressure;Samples;Min_cycle;Max_cycle;Signal;HPM_P1;HPM_P2
2022/12/30 00:01:50;;;;;;;;;;;;;;;6.70;60.31;99380.69;4483110;32;33000;-91
2022/12/30 00:04:18;;;;;;;;;;;;;;;7.05;59.22;99374.06;4482882;32;36432;-95
2022/12/30 00:06:47;;;;;;;;;;;;;;;7.32;58.32;99361.09;4482154;31;34382;-82
2022/12/30 00:09:14;;;;;;;;;;;;;;;6.88;60.08;99369.19;4484982;31;34550;-92
2022/12/30 00:11:41;;;;;;;;;;;;;;;6.60;60.77;99367.50;4492600;31;33119;-93
2022/12/30 00:34:23;;;;;;;;;;;;;;;8.69;54.15;99360.37;4490520;31;34373;-91
2022/12/30 00:36:51;;;;;;;;;;;;;;;8.03;56.01;99360.41;4490856;31;34836;-86
2022/12/30 00:39:18;;;;;;;;;;;;;;;8.61;54.62;99366.22;4489728;31;34008;-87
2022/12/30 00:44:31;;;;;;;;;;;;;;;7.55;57.47;99363.44;4485961;31;33527;-92
2022/12/30 00:46:58;;;;;;;;;;;;;;;7.85;57.10;99368.56;4483435;32;35091;-93
2022/12/30 00:57:44;;;;;;;;;;;;;;;8.76;54.29;99372.59;4484901;31;34969;-90
2022/12/30 01:00:12;;;;;;;;;;;;;;;8.61;54.51;99374.84;4491393;31;33971;-90
2022/12/30 01:02:39;;;;;;;;;;;;;;;8.13;56.35;99366.72;4494069;31;34287;-89
2022/12/30 01:05:07;;;;;;;;;;;;;;;7.58;57.29;99366.13;4497049;31;33511;-91
2022/12/30 01:07:34;;;;;;;;;;;;;;;8.09;56.16;99363.16;4473260;31;34000;-79
2022/12/30 01:10:01;;;;;;;;;;;;;;;8.78;54.28;99370.91;4481172;31;35102;-90
2022/12/30 01:12:29;;;;;;;;;;;;;;;7.87;57.02;99355.69;4472559;32;35058;-76
2022/12/30 01:14:58;;;;;;;;;;;;;;;7.88;57.10;99368.66;4481944;31;34250;-78
2022/12/30 01:17:27;;;;;;;;;;;;;;;7.64;58.15;99358.53;4485096;31;34593;-78
2022/12/30 01:19:55;;;;;;;;;;;;;;;7.63;57.88;99359.38;4479064;31;34352;-78
2022/12/30 01:22:22;;;;;;;;;;;;;;;8.01;57.12;99347.47;4471956;31;35291;-79
2022/12/30 01:24:49;;;;;;;;;;;;;;;7.70;58.43;99350.97;4482929;31;34430;-92
2022/12/30 01:27:17;;;;;;;;;;;;;;;8.38;56.46;99350.16;4482538;32;34249;-87
2022/12/30 01:29:44;;;;;;;;;;;;;;;8.23;56.79;99346.31;4470734;31;34022;-82
2022/12/30 01:32:13;;;;;;;;;;;;;;;7.76;58.20;99342.50;4498117;31;35400;-87
2022/12/30 01:34:40;;;;;;;;;;;;;;;7.79;58.03;99340.88;4480506;31;33326;-87
2022/12/30 01:37:08;;;;;;;;;;;;;;;8.27;56.80;99340.38;4478716;31;35042;-85
2022/12/30 01:39:35;;;;;;;;;;;;;;;8.85;54.70;99332.28;4478702;32;35383;-90
2022/12/30 01:42:03;;;;;;;;;;;;;;;9.11;54.12;99320.78;4467510;32;35237;-88
2022/12/30 01:44:39;;;;;;;;;;;;;;;8.86;54.84;99326.28;4472655;32;32981;-85
2022/12/30 01:47:06;;;;;;;;;;;;;;;9.48;52.99;99329.31;4482124;31;34918;-79
2022/12/30 01:49:34;;;;;;;;;;;;;;;8.65;54.84;99322.37;4464649;32;35261;-78
2022/12/30 01:52:01;;;;;;;;;;;;;;;8.10;56.38;99321.00;4475851;31;34509;-92
2022/12/30 01:54:28;;;;;;;;;;;;;;;8.00;57.16;99325.09;4492675;31;32530;-89
2022/12/30 01:56:56;;;;;;;;;;;;;;;8.03;56.95;99330.34;4487048;31;34281;-89
2022/12/30 01:59:26;;;;;;;;;;;;;;;8.61;55.24;99324.88;4475281;31;34810;-79
2022/12/30 02:01:53;;;;;;;;;;;;;;;7.99;56.87;99320.75;4479789;32;33953;-85
2022/12/30 02:04:21;;;;;;;;;;;;;;;8.29;56.33;99319.75;4470390;32;33768;-80
2022/12/30 02:06:53;;;;;;;;;;;;;;;7.19;59.10;99315.13;4485836;31;33448;-78
2022/12/30 02:09:20;;;;;;;;;;;;;;;7.12;59.52;99308.06;4481329;32;34222;-89
2022/12/30 02:11:47;;;;;;;;;;;;;;;7.53;58.68;99304.06;4471750;32;34811;-84
2022/12/30 02:14:15;;;;;;;;;;;;;;;8.20;56.90;99309.22;4469629;32;33247;-92
2022/12/30 02:16:55;;;;;;;;;;;;;;;8.39;56.44;99308.84;4484517;32;33756;-82
2022/12/30 02:19:48;;;;;;;;;;;;;;;8.74;55.46;99304.47;4482291;31;34682;-80
2022/12/30 02:22:18;;;;;;;;;;;;;;;8.77;55.57;99311.44;4458604;31;33985;-86
2022/12/30 02:24:48;;;;;;;;;;;;;;;7.84;57.94;99306.56;4482179;31;34243;-92
2022/12/30 02:27:25;;;;;;;;;;;;;;;8.15;57.16;99303.94;4482238;31;34659;-81
2022/12/30 02:29:55;;;;;;;;;;;;;;;7.72;58.30;99302.84;4480548;32;33808;-91
2022/12/30 02:32:22;;;;;;;;;;;;;;;8.18;57.25;99303.12;4478801;32;34207;-91
2022/12/30 02:34:59;;;;;;;;;;;;;;;7.73;58.56;99309.75;4485455;31;34304;-92
2022/12/30 02:37:26;;;;;;;;;;;;;;;8.76;55.65;99297.66;4490288;31;34042;-93
2022/12/30 02:39:57;;;;;;;;;;;;;;;8.33;56.32;99300.03;4478976;31;34430;-84
2022/12/30 02:45:18;;;;;;;;;;;;;;;7.38;59.72;99301.06;4483214;31;33392;-90
2022/12/30 02:47:50;;;;;;;;;;;;;;;6.72;61.97;99300.87;4469509;32;34371;-87
2022/12/30 02:53:04;;;;;;;;;;;;;;;7.15;60.47;99313.31;4482550;31;34335;-80
2022/12/30 02:55:32;;;;;;;;;;;;;;;8.11;57.68;99307.28;4495095;31;33724;-91
2022/12/30 02:57:59;;;;;;;;;;;;;;;8.43;56.87;99308.06;4482736;31;35585;-91
2022/12/30 03:06:19;;;;;;;;;;;;;;;8.05;58.19;99296.78;4482882;31;33665;-88
2022/12/30 03:08:48;;;;;;;;;;;;;;;7.52;59.61;99304.03;4485693;31;34774;-87
2022/12/30 03:11:18;;;;;;;;;;;;;;;6.76;61.92;99313.03;4483875;31;34191;-90
2022/12/30 03:13:48;;;;;;;;;;;;;;;8.13;58.17;99309.88;4482622;31;33957;-84
2022/12/30 03:16:28;;;;;;;;;;;;;;;7.78;58.68;99304.72;4478426;31;33747;-85
2022/12/30 03:18:55;;;;;;;;;;;;;;;7.26;61.10;99306.75;4483148;31;33825;-92
2022/12/30 03:21:23;;;;;;;;;;;;;;;7.29;61.19;99296.53;4482517;31;34935;-86
2022/12/30 03:29:24;;;;;;;;;;;;;;;7.36;61.06;99301.88;4455715;32;34864;-82
2022/12/30 03:31:52;;;;;;;;;;;;;;;6.99;62.26;99301.69;4479819;32;35291;-91
2022/12/30 03:34:19;;;;;;;;;;;;;;;6.72;63.58;99293.16;4483354;32;34551;-92
2022/12/30 03:36:46;;;;;;;;;;;;;;;7.14;61.99;99293.50;4482787;32;34397;-93
2022/12/30 03:39:17;;;;;;;;;;;;;;;7.67;60.61;99296.69;4469056;31;34062;-86
2022/12/30 03:41:45;;;;;;;;;;;;;;;7.45;61.62;99296.94;4468457;32;34487;-90
2022/12/30 03:44:12;;;;;;;;;;;;;;;7.30;61.51;99293.09;4469997;32;34135;-92
2022/12/30 03:46:41;;;;;;;;;;;;;;;7.32;61.59;99300.91;4469189;32;33705;-93
2022/12/30 03:49:08;;;;;;;;;;;;;;;6.60;64.14;99306.53;4478475;31;34761;-81
2022/12/30 03:51:35;;;;;;;;;;;;;;;7.43;61.69;99296.91;4488712;31;34354;-85
2022/12/30 03:54:03;;;;;;;;;;;;;;;7.22;62.66;99301.47;4483711;31;35123;-88
2022/12/30 03:56:30;;;;;;;;;;;;;;;6.56;64.52;99300.41;4481302;31;33535;-80
2022/12/30 03:58:57;;;;;;;;;;;;;;;6.39;65.29;99305.84;4498539;31;33812;-93
2022/12/30 04:01:25;;;;;;;;;;;;;;;6.96;63.70;99305.88;4499234;31;34408;-88
2022/12/30 04:03:52;;;;;;;;;;;;;;;6.69;64.50;99298.19;4498507;31;34544;-84
2022/12/30 04:06:20;;;;;;;;;;;;;;;6.04;66.49;99308.16;4481766;31;33362;-91
2022/12/30 04:08:47;;;;;;;;;;;;;;;7.05;63.14;99288.12;4488222;31;34031;-93
2022/12/30 04:11:14;;;;;;;;;;;;;;;7.08;63.34;99298.50;4476901;31;34484;-80
2022/12/30 04:13:41;;;;;;;;;;;;;;;6.48;64.07;99306.16;4483920;31;34989;-85
2022/12/30 04:16:08;;;;;;;;;;;;;;;6.72;63.80;99306.91;4490035;31;33639;-87
2022/12/30 04:18:36;;;;;;;;;;;;;;;6.85;63.54;99308.13;4484525;31;34289;-92
2022/12/30 04:21:03;;;;;;;;;;;;;;;7.84;59.98;99311.72;4489289;31;34368;-92
2022/12/30 04:23:30;;;;;;;;;;;;;;;7.32;61.90;99306.06;4497167;31;34532;-90
2022/12/30 04:25:58;;;;;;;;;;;;;;;7.68;60.53;99311.31;4484919;31;34393;-93
2022/12/30 04:28:25;;;;;;;;;;;;;;;7.28;61.82;99310.25;4484301;31;33530;-81
2022/12/30 04:30:52;;;;;;;;;;;;;;;7.40;61.03;99302.00;4487692;31;34268;-93
2022/12/30 04:33:20;;;;;;;;;;;;;;;7.61;60.37;99309.41;4497554;31;34124;-92
2022/12/30 04:35:47;;;;;;;;;;;;;;;7.61;60.66;99296.50;4484337;31;33818;-82
2022/12/30 04:38:14;;;;;;;;;;;;;;;7.83;60.24;99300.53;4482642;31;35077;-82
2022/12/30 04:40:42;;;;;;;;;;;;;;;7.99;59.77;99306.97;4490047;31;34384;-93
2022/12/30 04:43:09;;;;;;;;;;;;;;;7.46;61.12;99309.00;4490966;31;35273;-94
2022/12/30 04:45:36;;;;;;;;;;;;;;;7.17;62.74;99310.78;4481410;31;33402;-80
2022/12/30 04:48:04;;;;;;;;;;;;;;;7.67;60.34;99309.59;4495857;31;34189;-93
2022/12/30 04:50:31;;;;;;;;;;;;;;;7.72;60.76;99315.72;4497306;31;34361;-90
2022/12/30 04:52:58;;;;;;;;;;;;;;;7.87;60.32;99314.41;4489109;31;34740;-79
2022/12/30 04:55:25;;;;;;;;;;;;;;;8.93;57.10;99312.63;4488719;31;34189;-83
2022/12/30 04:57:52;;;;;;;;;;;;;;;9.06;56.67;99293.97;4482820;31;34240;-84
2022/12/30 05:00:20;;;;;;;;;;;;;;;8.87;57.38;99307.34;4489903;31;34384;-82
2022/12/30 05:02:47;;;;;;;;;;;;;;;8.37;58.42;99312.19;4497952;31;34325;-93
2022/12/30 05:05:15;;;;;;;;;;;;;;;8.72;57.47;99298.41;4475128;31;34234;-92
2022/12/30 05:07:42;;;;;;;;;;;;;;;9.53;55.24;99299.19;4482928;31;33893;-92
2022/12/30 05:10:09;;;;;;;;;;;;;;;9.22;56.21;99298.59;4482200;31;33952;-93
2022/12/30 05:12:36;;;;;;;;;;;;;;;8.23;58.29;99306.72;4479037;32;34943;-91
2022/12/30 05:15:04;;;;;;;;;;;;;;;7.66;60.31;99313.00;4484710;31;33765;-90
2022/12/30 05:17:31;;;;;;;;;;;;;;;9.03;56.98;99301.66;4492622;31;34241;-93
2022/12/30 05:19:58;;;;;;;;;;;;;;;7.88;59.90;99310.97;4498143;31;34183;-85
2022/12/30 05:22:26;;;;;;;;;;;;;;;8.11;59.56;99321.91;4483803;31;34528;-91
2022/12/30 05:27:39;;;;;;;;;;;;;;;7.41;62.20;99331.22;4500486;31;34367;-92
2022/12/30 05:30:07;;;;;;;;;;;;;;;8.15;59.86;99339.22;4499467;31;35309;-90
2022/12/30 05:32:34;;;;;;;;;;;;;;;8.15;60.18;99339.22;4498460;31;34346;-92
2022/12/30 05:35:01;;;;;;;;;;;;;;;8.86;57.95;99324.56;4479977;32;33641;-87
2022/12/30 05:37:29;;;;;;;;;;;;;;;8.80;57.62;99319.25;4486377;31;34870;-92
2022/12/30 05:39:56;;;;;;;;;;;;;;;9.63;55.45;99313.22;4485934;31;34096;-86
2022/12/30 05:42:23;;;;;;;;;;;;;;;9.14;56.25;99313.09;4485446;31;34575;-91
2022/12/30 05:44:50;;;;;;;;;;;;;;;9.91;54.55;99317.16;4487768;31;34069;-92
2022/12/30 05:47:18;;;;;;;;;;;;;;;9.18;56.51;99320.09;4484421;31;33637;-82
2022/12/30 05:49:45;;;;;;;;;;;;;;;8.80;57.83;99328.75;4485500;31;34105;-92
2022/12/30 05:52:12;;;;;;;;;;;;;;;8.39;58.84;99333.81;4484432;32;34563;-93
2022/12/30 05:54:40;;;;;;;;;;;;;;;8.47;59.12;99343.47;4483302;31;33657;-94
2022/12/30 05:57:07;;;;;;;;;;;;;;;7.92;60.16;99338.63;4485773;31;34209;-93
2022/12/30 05:59:35;;;;;;;;;;;;;;;9.40;56.52;99331.75;4496983;31;35133;-93
2022/12/30 06:02:02;;;;;;;;;;;;;;;8.72;58.66;99337.19;4495063;31;34324;-79
2022/12/30 06:04:30;;;;;;;;;;;;;;;8.34;59.10;99346.59;4495057;31;33622;-92
2022/12/30 06:06:57;;;;;;;;;;;;;;;8.26;60.00;99345.53;4499985;31;34883;-91
2022/12/30 06:09:24;;;;;;;;;;;;;;;8.95;57.36;99342.88;4476338;32;34455;-88
2022/12/30 06:11:52;;;;;;;;;;;;;;;8.85;58.10;99345.22;4485392;31;35204;-93
2022/12/30 06:14:20;;;;;;;;;;;;;;;9.49;56.14;99338.81;4485799;31;33893;-87
2022/12/30 06:16:48;;;;;;;;;;;;;;;9.98;54.95;99343.19;4497221;31;33794;-93
2022/12/30 06:19:15;;;;;;;;;;;;;;;9.69;55.26;99350.41;4485394;31;34084;-94
2022/12/30 06:21:42;;;;;;;;;;;;;;;9.87;54.26;99351.63;4489640;31;33942;-94
2022/12/30 06:24:10;;;;;;;;;;;;;;;10.48;52.95;99350.97;4478352;31;33332;-88
2022/12/30 06:26:37;;;;;;;;;;;;;;;10.89;51.79;99349.88;4486296;31;34092;-93
2022/12/30 06:29:04;;;;;;;;;;;;;;;10.62;52.20;99350.34;4497139;31;34061;-80
2022/12/30 06:31:31;;;;;;;;;;;;;;;10.46;52.51;99355.28;4484364;31;34482;-85
2022/12/30 06:33:59;;;;;;;;;;;;;;;10.39;52.34;99355.16;4494008;31;33485;-80
2022/12/30 06:36:26;;;;;;;;;;;;;;;10.36;52.41;99350.78;4487280;31;33614;-85
2022/12/30 06:38:53;;;;;;;;;;;;;;;10.29;52.45;99358.44;4487581;31;35274;-80
2022/12/30 06:41:21;;;;;;;;;;;;;;;10.37;52.15;99365.47;4498190;31;34458;-88
2022/12/30 06:43:48;;;;;;;;;;;;;;;10.07;52.67;99365.78;4490044;31;33755;-87
2022/12/30 06:46:15;;;;;;;;;;;;;;;10.37;51.72;99362.03;4477458;32;34938;-91
2022/12/30 06:48:43;;;;;;;;;;;;;;;9.70;53.70;99366.84;4486465;31;34298;-93
2022/12/30 06:51:10;;;;;;;;;;;;;;;10.08;52.69;99369.28;4499491;31;34438;-91
2022/12/30 06:53:37;;;;;;;;;;;;;;;10.63;51.46;99365.91;4487346;31;34484;-91
2022/12/30 06:56:06;;;;;;;;;;;;;;;10.66;51.11;99359.91;4477889;31;33697;-92
2022/12/30 06:58:33;;;;;;;;;;;;;;;10.53;50.54;99358.84;4481571;31;34480;-92
2022/12/30 07:01:00;;;;;;;;;;;;;;;10.21;52.30;99366.91;4483442;31;34452;-94
2022/12/30 07:03:27;;;;;;;;;;;;;;;10.92;50.10;99365.47;4484257;32;34464;-92
2022/12/30 07:05:55;;;;;;;;;;;;;;;11.28;49.44;99366.81;4488280;31;35038;-94
2022/12/30 07:08:22;;;;;;;;;;;;;;;10.17;51.27;99375.47;4488661;31;35208;-93
2022/12/30 07:10:49;;;;;;;;;;;;;;;10.58;50.62;99388.31;4499799;31;34238;-85
2022/12/30 07:13:18;;;;;;;;;;;;;;;10.66;50.39;99391.87;4499922;31;33710;-93
2022/12/30 07:15:46;;;;;;;;;;;;;;;10.99;49.71;99384.63;4495938;31;34223;-83
2022/12/30 07:18:13;;;;;;;;;;;;;;;11.18;48.68;99390.06;4495049;31;35069;-93
2022/12/30 07:20:40;;;;;;;;;;;;;;;10.86;49.74;99399.97;4484047;31;34424;-89
2022/12/30 07:23:09;;;;;;;;;;;;;;;10.09;52.10;99409.88;4489973;31;33522;-81
2022/12/30 07:25:37;;;;;;;;;;;;;;;10.29;50.82;99405.06;4476880;32;34169;-83
2022/12/30 07:28:04;;;;;;;;;;;;;;;10.80;50.07;99410.25;4479064;31;35348;-89
2022/12/30 07:30:31;;;;;;;;;;;;;;;11.08;49.46;99416.72;4493394;31;34542;-92
2022/12/30 07:32:59;;;;;;;;;;;;;;;11.14;49.18;99415.97;4499462;31;33795;-92
2022/12/30 07:35:26;;;;;;;;;;;;;;;11.09;49.32;99415.88;4485178;31;35058;-92
2022/12/30 07:37:53;;;;;;;;;;;;;;;10.41;50.67;99426.00;4483410;31;33799;-79
2022/12/30 07:40:21;;;;;;;;;;;;;;;10.56;50.71;99421.09;4497188;31;34426;-83
2022/12/30 07:42:48;;;;;;;;;;;;;;;10.80;50.17;99423.22;4491619;31;34383;-88
2022/12/30 07:45:17;;;;;;;;;;;;;;;10.26;51.35;99420.56;4495589;31;34171;-80
2022/12/30 07:47:44;;;;;;;;;;;;;;;10.59;50.50;99425.47;4483541;32;34412;-94
2022/12/30 07:50:12;;;;;;;;;;;;;;;10.50;50.57;99428.78;4490023;31;34511;-93
2022/12/30 07:52:39;;;;;;;;;;;;;;;10.65;50.70;99429.03;4479154;32;34353;-93
2022/12/30 07:55:07;;;;;;;;;;;;;;;10.62;50.73;99428.97;4478280;31;34128;-93
2022/12/30 07:57:34;;;;;;;;;;;;;;;10.86;50.07;99441.47;4466695;32;33928;-94
2022/12/30 08:00:02;;;;;;;;;;;;;;;10.23;51.48;99444.69;4467839;32;34155;-85
2022/12/30 08:02:39;;;;;;;;;;;;;;;10.07;52.12;99440.03;4472123;32;34370;-80
2022/12/30 08:05:07;;;;;;;;;;;;;;;10.46;51.32;99450.31;4474776;32;35006;-83
2022/12/30 08:07:35;;;;;;;;;;;;;;;10.95;49.95;99443.34;4468121;32;34079;-88
2022/12/30 08:10:02;;;;;;;;;;;;;;;11.10;49.86;99443.59;4482221;31;34378;-90
2022/12/30 08:12:29;;;;;;;;;;;;;;;11.00;49.73;99452.06;4498038;31;33151;-83
2022/12/30 08:14:57;;;;;;;;;;;;;;;10.88;50.09;99449.28;4499311;31;34631;-92
2022/12/30 08:17:24;;;;;;;;;;;;;;;11.06;49.83;99449.59;4494112;31;34118;-92
2022/12/30 08:19:51;;;;;;;;;;;;;;;10.82;50.32;99451.78;4483098;32;34583;-91
2022/12/30 08:22:18;;;;;;;;;;;;;;;11.37;48.93;99456.09;4485727;31;34376;-89
2022/12/30 08:24:46;;;;;;;;;;;;;;;10.86;50.17;99458.75;4474811;31;34208;-80
2022/12/30 08:27:13;;;;;;;;;;;;;;;11.05;49.60;99453.00;4486090;31;34253;-91
2022/12/30 08:29:40;;;;;;;;;;;;;;;11.08;49.63;99457.38;4484022;32;34354;-91
2022/12/30 08:32:07;;;;;;;;;;;;;;;11.54;48.83;99458.91;4480131;31;33629;-88
2022/12/30 08:34:35;;;;;;;;;;;;;;;11.49;48.62;99454.50;4496206;31;34122;-81
2022/12/30 08:37:02;;;;;;;;;;;;;;;11.36;49.04;99454.31;4499063;31;34112;-94
2022/12/30 08:39:29;;;;;;;;;;;;;;;11.73;48.24;99465.22;4498710;31;34446;-90
2022/12/30 08:41:57;;;;;;;;;;;;;;;12.04;47.69;99461.28;4484751;31;33398;-92
2022/12/30 08:44:24;;;;;;;;;;;;;;;12.25;46.50;99462.41;4486034;31;35392;-92
2022/12/30 08:46:52;;;;;;;;;;;;;;;11.88;47.56;99461.97;4487243;31;35335;-93
2022/12/30 08:49:20;;;;;;;;;;;;;;;12.22;47.05;99467.56;4479509;31;34031;-80
2022/12/30 08:51:47;;;;;;;;;;;;;;;12.45;46.74;99471.28;4483487;31;34422;-93
2022/12/30 08:54:16;;;;;;;;;;;;;;;11.36;49.02;99480.28;4467264;32;34917;-92
2022/12/30 08:56:45;;;;;;;;;;;;;;;12.34;46.86;99470.28;4481525;31;34232;-86
2022/12/30 08:59:12;;;;;;;;;;;;;;;12.09;47.38;99477.81;4482504;32;33922;-93
2022/12/30 09:01:43;;;;;;;;;;;;;;;12.62;46.19;99479.25;4481843;31;33508;-93
2022/12/30 09:04:11;;;;;;;;;;;;;;;10.36;50.70;99482.97;4484632;31;34690;-95
2022/12/30 09:06:39;;;;;;;;;;;;;;;11.18;49.42;99480.03;4476970;31;35269;-85
2022/12/30 09:09:07;;;;;;;;;;;;;;;11.54;48.52;99487.47;4467240;32;35179;-91
2022/12/30 09:11:35;;;;;;;;;;;;;;;11.80;48.06;99486.94;4470430;31;33400;-87
2022/12/30 09:14:03;;;;;;;;;;;;;;;11.40;48.93;99489.87;4495597;31;33985;-90
2022/12/30 09:16:30;;;;;;;;;;;;;;;12.19;47.35;99496.97;4479672;31;34058;-93
2022/12/30 09:18:58;;;;;;;;;;;;;;;11.64;48.63;99499.72;4468112;32;34601;-89
2022/12/30 09:21:25;;;;;;;;;;;;;;;12.13;47.78;99486.53;4468552;31;34405;-94
2022/12/30 09:23:53;;;;;;;;;;;;;;;10.66;51.01;99493.00;4494470;31;33616;-92
2022/12/30 09:26:21;;;;;;;;;;;;;;;10.85;51.40;99495.91;4484178;31;34429;-78
2022/12/30 09:28:48;;;;;;;;;;;;;;;11.36;49.68;99498.44;4490897;31;33547;-84
2022/12/30 09:31:16;;;;;;;;;;;;;;;11.81;48.91;99496.47;4482817;31;34975;-92
2022/12/30 09:33:43;;;;;;;;;;;;;;;11.75;49.34;99489.50;4482746;32;33991;-93
2022/12/30 09:36:11;;;;;;;;;;;;;;;11.06;50.58;99485.91;4482443;31;34467;-93
2022/12/30 09:38:38;;;;;;;;;;;;;;;10.90;51.93;99489.94;4468444;31;34091;-88
2022/12/30 09:41:16;;;;;;;;;;;;;;;10.98;51.80;99482.28;4480222;31;34552;-92
2022/12/30 09:44:02;;;;;;;;;;;;;;;10.58;52.44;99476.44;4486795;31;34049;-81
2022/12/30 09:46:35;;;;;;;;;;;;;;;10.99;50.59;99478.00;4487044;31;33963;-80
2022/12/30 09:49:03;;;;;;;;;;;;;;;10.59;52.10;99478.19;4491606;31;34527;-89
2022/12/30 09:51:36;;;;;;;;;;;;;;;11.29;50.46;99487.94;4482172;32;33777;-93
2022/12/30 09:54:04;;;;;;;;;;;;;;;11.43;50.16;99483.84;4492056;31;34902;-93
2022/12/30 09:56:34;;;;;;;;;;;;;;;10.61;51.39;99489.47;4473155;32;35307;-94
2022/12/30 09:59:10;;;;;;;;;;;;;;;10.49;51.66;99484.03;4492683;31;35158;-89
2022/12/30 10:01:47;;;;;;;;;;;;;;;10.53;51.90;99482.37;4481507;32;34460;-94
2022/12/30 10:04:16;;;;;;;;;;;;;;;9.77;53.81;99486.91;4480026;31;34228;-91
2022/12/30 10:06:52;;;;;;;;;;;;;;;10.75;51.53;99483.63;4466724;32;34118;-83
2022/12/30 10:09:20;;;;;;;;;;;;;;;9.87;53.81;99489.72;4477060;31;34251;-87
2022/12/30 10:11:47;;;;;;;;;;;;;;;10.81;51.12;99479.44;4487663;31;33686;-81
2022/12/30 10:14:23;;;;;;;;;;;;;;;10.76;51.36;99485.38;4486795;31;34358;-90
2022/12/30 10:16:54;;;;;;;;;;;;;;;10.42;52.30;99490.00;4490102;31;35157;-79
2022/12/30 10:19:24;;;;;;;;;;;;;;;11.10;50.47;99494.59;4498824;31;35335;-94
2022/12/30 10:22:10;;;;;;;;;;;;;;;11.55;49.43;99497.00;4489393;31;33642;-93
2022/12/30 10:24:56;;;;;;;;;;;;;;;11.67;48.95;99494.59;4477641;31;34526;-79
2022/12/30 10:27:44;;;;;;;;;;;;;;;12.02;48.03;99488.13;4488447;31;35467;-86
2022/12/30 10:30:12;;;;;;;;;;;;;;;12.18;47.50;99483.13;4495244;31;34232;-94
2022/12/30 10:32:40;;;;;;;;;;;;;;;12.47;46.68;99492.97;4485844;31;33773;-93
2022/12/30 10:35:26;;;;;;;;;;;;;;;12.14;47.49;99490.87;4482553;31;33977;-93
2022/12/30 10:38:04;;;;;;;;;;;;;;;11.60;48.59;99490.16;4485526;31;33997;-92
2022/12/30 10:40:41;;;;;;;;;;;;;;;11.81;48.44;99501.69;4473010;32;34508;-91
2022/12/30 10:43:36;;;;;;;;;;;;;;;11.74;48.61;99502.44;4489242;31;33784;-90
2022/12/30 10:46:03;;;;;;;;;;;;;;;12.34;47.09;99491.09;4500083;31;34987;-90
2022/12/30 10:48:49;;;;;;;;;;;;;;;11.81;48.04;99488.69;4499944;31;35277;-91
2022/12/30 10:51:16;;;;;;;;;;;;;;;11.17;49.57;99497.34;4481942;31;34392;-93
2022/12/30 10:53:44;;;;;;;;;;;;;;;12.30;47.12;99491.91;4468405;32;34512;-93
2022/12/30 10:56:14;;;;;;;;;;;;;;;12.11;47.60;99488.22;4474918;31;34520;-80
2022/12/30 10:58:41;;;;;;;;;;;;;;;11.96;48.12;99495.84;4484051;31;34496;-93
2022/12/30 11:01:19;;;;;;;;;;;;;;;11.22;49.90;99492.19;4474469;32;35234;-84
2022/12/30 11:03:56;;;;;;;;;;;;;;;11.43;49.42;99487.31;4468183;32;33930;-86
2022/12/30 11:06:30;;;;;;;;;;;;;;;11.66;48.69;99482.44;4478514;31;34107;-90
2022/12/30 11:09:20;;;;;;;;;;;;;;;11.96;48.26;99478.53;4469601;32;34786;-93
2022/12/30 11:15:17;;;;;;;;;;;;;;;12.21;47.87;99484.88;4472412;31;34276;-91
2022/12/30 11:17:44;;;;;;;;;;;;;;;12.41;47.48;99487.69;4482619;31;34088;-85
2022/12/30 11:20:11;;;;;;;;;;;;;;;13.12;46.26;99499.63;4474582;32;34213;-94
2022/12/30 11:22:45;;;;;;;;;;;;;;;13.31;45.91;99487.66;4476520;32;34627;-91
2022/12/30 11:25:33;;;;;;;;;;;;;;;13.40;44.98;99492.91;4483744;31;33590;-90
2022/12/30 11:28:04;;;;;;;;;;;;;;;12.97;45.81;99479.56;4488838;31;34008;-84
2022/12/30 11:30:55;;;;;;;;;;;;;;;13.06;46.07;99492.63;4494703;31;34502;-79
2022/12/30 11:33:33;;;;;;;;;;;;;;;12.83;46.41;99487.22;4477121;31;35012;-91
2022/12/30 11:36:19;;;;;;;;;;;;;;;12.57;47.39;99488.72;4499069;31;33982;-91
2022/12/30 11:38:47;;;;;;;;;;;;;;;11.69;49.50;99498.06;4472148;32;33627;-91
2022/12/30 11:41:18;;;;;;;;;;;;;;;12.74;46.54;99492.38;4466728;32;34003;-89
2022/12/30 11:43:46;;;;;;;;;;;;;;;13.30;45.42;99504.13;4473923;32;34583;-92
2022/12/30 11:46:17;;;;;;;;;;;;;;;13.02;46.23;99509.06;4483333;31;33177;-89
2022/12/30 11:48:49;;;;;;;;;;;;;;;12.35;48.06;99509.31;4488398;31;34100;-92
2022/12/30 11:51:23;;;;;;;;;;;;;;;12.60;47.64;99507.81;4474719;31;34362;-92
2022/12/30 11:54:01;;;;;;;;;;;;;;;13.02;46.86;99510.81;4484054;32;35540;-92
2022/12/30 11:56:28;;;;;;;;;;;;;;;12.61;47.48;99517.41;4469911;32;33961;-91
2022/12/30 11:58:57;;;;;;;;;;;;;;;13.07;46.68;99519.56;4483688;31;35064;-84
2022/12/30 12:01:24;;;;;;;;;;;;;;;12.46;47.98;99516.34;4472629;31;34223;-83
2022/12/30 12:03:52;;;;;;;;;;;;;;;12.56;47.88;99519.06;4468593;32;34533;-92
2022/12/30 12:06:20;;;;;;;;;;;;;;;12.86;47.31;99518.47;4467867;32;33341;-86
2022/12/30 12:09:03;;;;;;;;;;;;;;;12.10;49.11;99523.75;4476091;32;33872;-91
2022/12/30 12:11:39;;;;;;;;;;;;;;;12.02;49.19;99525.38;4460983;31;35136;-92
2022/12/30 12:14:09;;;;;;;;;;;;;;;12.69;48.20;99521.78;4471007;31;34601;-94
2022/12/30 12:16:51;;;;;;;;;;;;;;;12.38;48.77;99524.06;4471528;32;34589;-85
2022/12/30 12:19:21;;;;;;;;;;;;;;;12.77;47.92;99528.81;4477345;31;34824;-93
2022/12/30 12:21:50;;;;;;;;;;;;;;;13.18;47.16;99528.28;4469241;32;34316;-93
2022/12/30 12:24:23;;;;;;;;;;;;;;;13.51;46.48;99522.50;4469562;32;34241;-84
2022/12/30 12:26:51;;;;;;;;;;;;;;;13.66;46.05;99513.91;4483925;31;33682;-85
2022/12/30 12:29:18;;;;;;;;;;;;;;;12.93;47.32;99521.16;4483621;32;34234;-81
2022/12/30 12:31:52;;;;;;;;;;;;;;;13.12;46.63;99526.53;4476539;31;35039;-93
2022/12/30 12:34:39;;;;;;;;;;;;;;;12.46;47.90;99519.81;4478382;31;34953;-92
2022/12/30 12:37:06;;;;;;;;;;;;;;;12.73;47.47;99527.06;4499302;31;34566;-87
2022/12/30 12:39:43;;;;;;;;;;;;;;;12.37;48.40;99522.31;4499446;31;34271;-91
2022/12/30 12:42:10;;;;;;;;;;;;;;;11.67;50.48;99530.09;4487655;31;35298;-81
2022/12/30 12:44:42;;;;;;;;;;;;;;;11.74;49.79;99524.09;4483651;32;35294;-81
2022/12/30 12:47:12;;;;;;;;;;;;;;;11.47;50.62;99518.50;4469241;32;33664;-92
2022/12/30 12:49:52;;;;;;;;;;;;;;;10.91;52.48;99521.94;4486800;31;34332;-80
2022/12/30 12:52:25;;;;;;;;;;;;;;;10.33;53.50;99518.31;4485118;31;34518;-82
2022/12/30 12:55:07;;;;;;;;;;;;;;;11.44;51.29;99519.38;4486023;31;33978;-86
2022/12/30 12:57:35;;;;;;;;;;;;;;;12.26;48.92;99526.53;4470142;31;34512;-90
2022/12/30 13:00:07;;;;;;;;;;;;;;;12.30;49.31;99525.69;4468551;32;33753;-91
2022/12/30 13:02:47;;;;;;;;;;;;;;;12.01;49.72;99534.03;4482875;31;34239;-93
2022/12/30 13:05:22;;;;;;;;;;;;;;;11.96;50.37;99535.69;4483346;32;34470;-92
2022/12/30 13:07:56;;;;;;;;;;;;;;;12.36;49.45;99531.00;4469177;32;33413;-91
2022/12/30 13:10:50;;;;;;;;;;;;;;;11.67;51.69;99538.75;4481858;31;34990;-92
2022/12/30 13:13:43;;;;;;;;;;;;;;;11.18;53.09;99545.78;4483046;31;34332;-91
2022/12/30 13:16:12;;;;;;;;;;;;;;;11.34;52.72;99541.69;4482883;31;34778;-93
2022/12/30 13:18:40;;;;;;;;;;;;;;;12.01;51.00;99538.34;4483063;31;33655;-93
2022/12/30 13:21:09;;;;;;;;;;;;;;;10.48;54.68;99544.53;4468703;32;34128;-91
2022/12/30 13:23:39;;;;;;;;;;;;;;;11.12;53.53;99542.19;4475555;32;34333;-92
2022/12/30 13:26:08;;;;;;;;;;;;;;;11.35;52.58;99542.56;4473050;31;34371;-87
2022/12/30 13:28:35;;;;;;;;;;;;;;;10.88;53.89;99550.44;4495327;31;33943;-79
2022/12/30 13:31:23;;;;;;;;;;;;;;;11.59;51.86;99550.75;4475653;32;34097;-95
2022/12/30 13:33:57;;;;;;;;;;;;;;;11.88;51.33;99553.78;4474671;31;34378;-82
2022/12/30 13:36:30;;;;;;;;;;;;;;;12.03;50.60;99555.69;4480441;31;35460;-92
2022/12/30 13:39:16;;;;;;;;;;;;;;;11.67;51.55;99561.25;4468438;32;33624;-82
2022/12/30 13:42:13;;;;;;;;;;;;;;;11.19;52.57;99570.88;4480529;31;34248;-91
2022/12/30 13:44:42;;;;;;;;;;;;;;;11.15;53.02;99573.41;4441246;32;34070;-92
2022/12/30 13:47:20;;;;;;;;;;;;;;;10.24;55.84;99579.44;4482955;31;34383;-93
2022/12/30 13:49:56;;;;;;;;;;;;;;;9.87;56.49;99589.84;4473342;32;33646;-93
2022/12/30 13:52:24;;;;;;;;;;;;;;;10.14;55.79;99571.44;4484794;31;33901;-95
2022/12/30 13:54:53;;;;;;;;;;;;;;;9.69;57.55;99580.81;4470140;32;33994;-84
2022/12/30 13:57:32;;;;;;;;;;;;;;;11.02;53.75;99571.44;4474490;31;33938;-90
2022/12/30 14:00:10;;;;;;;;;;;;;;;10.11;56.38;99571.38;4475559;32;33734;-79